createdAt,value
2019-04-01T05:00:05.276Z,63.19
2019-04-01T05:02:35.224Z,63.22
2019-04-01T05:05:05.193Z,63.12
2019-04-01T05:07:36.377Z,63.30
2019-04-01T05:10:07.061Z,63.40
2019-04-01T05:12:39.483Z,63.53
2019-04-01T05:15:10.405Z,63.74
2019-04-01T05:17:40.205Z,63.33
2019-04-01T05:20:10.542Z,63.80
2019-04-01T05:22:41.994Z,63.69
2019-04-01T05:25:12.869Z,63.64
2019-04-01T05:27:43.454Z,63.47
2019-04-01T05:30:14.116Z,63.86
2019-04-01T05:32:45.692Z,63.66
2019-04-01T05:35:18.416Z,63.38
2019-04-01T05:37:47.946Z,63.08
2019-04-01T05:40:20.227Z,63.00
2019-04-01T05:42:50.846Z,62.72
2019-04-01T05:45:22.305Z,63.79
2019-04-01T05:47:53.427Z,63.44
2019-04-01T05:50:22.869Z,63.67
2019-04-01T05:52:52.258Z,63.48
2019-04-01T05:55:21.918Z,63.46
2019-04-01T05:57:52.729Z,63.34
2019-04-01T06:00:28.172Z,63.27
2019-04-01T06:02:58.009Z,62.64
2019-04-01T06:05:27.618Z,62.67
2019-04-01T06:07:57.011Z,62.30
2019-04-01T06:10:28.422Z,62.04
2019-04-01T06:12:58.344Z,62.03
2019-04-01T06:15:27.999Z,61.82
2019-04-01T06:17:57.833Z,61.64
2019-04-01T06:20:27.323Z,61.01
2019-04-01T06:22:56.836Z,60.90
2019-04-01T06:25:27.590Z,59.60
2019-04-01T06:27:58.324Z,59.97
2019-04-01T06:30:29.263Z,59.23
2019-04-01T06:33:00.406Z,59.25
2019-04-01T06:35:30.023Z,58.76
2019-04-01T06:37:59.617Z,57.85
2019-04-01T06:40:30.777Z,57.24
2019-04-01T06:43:00.420Z,57.21
2019-04-01T06:45:29.880Z,57.23
2019-04-01T06:48:00.888Z,56.19
2019-04-01T06:50:30.386Z,55.41
2019-04-01T06:53:01.584Z,55.41
2019-04-01T06:55:32.438Z,54.41
2019-04-01T06:58:03.689Z,53.76
2019-04-01T07:00:34.565Z,53.20
2019-04-01T07:03:06.066Z,52.87
2019-04-01T07:05:37.365Z,51.88
2019-04-01T07:08:08.451Z,51.72
2019-04-01T07:10:40.551Z,50.54
2019-04-01T07:13:09.982Z,49.70
2019-04-01T07:15:39.734Z,49.44
2019-04-01T07:18:09.360Z,49.75
2019-04-01T07:20:38.784Z,49.57
2019-04-01T07:23:09.956Z,49.14
2019-04-01T07:25:39.500Z,48.57
2019-04-01T07:28:09.702Z,48.56
2019-04-01T07:30:41.787Z,48.76
2019-04-01T07:33:10.928Z,47.19
2019-04-01T07:35:40.344Z,41.90
2019-04-01T07:38:09.875Z,38.21
2019-04-01T07:40:39.443Z,35.71
2019-04-01T07:43:09.131Z,34.14
2019-04-01T07:45:38.911Z,32.29
2019-04-01T07:48:12.379Z,31.31
2019-04-01T07:50:40.568Z,29.49
2019-04-01T07:53:10.260Z,28.76
2019-04-01T07:55:39.795Z,28.44
2019-04-01T07:58:09.208Z,26.56
2019-04-01T08:00:40.736Z,26.00
2019-04-01T08:03:11.666Z,25.87
2019-04-01T08:05:41.194Z,26.51
2019-04-01T08:08:11.256Z,25.18
2019-04-01T08:10:40.718Z,25.13
2019-04-01T08:13:10.143Z,25.13
2019-04-01T08:15:42.674Z,25.26
2019-04-01T08:18:13.738Z,24.92
2019-04-01T08:20:43.309Z,24.60
2019-04-01T08:23:13.226Z,24.68
2019-04-01T08:25:47.802Z,24.38
2019-04-01T08:28:15.956Z,24.10
2019-04-01T08:30:46.154Z,24.54
2019-04-01T08:33:15.735Z,21.94
2019-04-01T08:35:48.077Z,21.33
2019-04-01T08:38:17.893Z,21.67
2019-04-01T08:40:50.461Z,22.03
2019-04-01T08:43:19.983Z,22.01
2019-04-01T08:45:49.800Z,21.78
2019-04-01T08:48:19.280Z,21.79
2019-04-01T08:50:51.664Z,21.00
2019-04-01T08:53:22.725Z,20.92
2019-04-01T08:56:12.251Z,21.50
2019-04-01T08:58:41.832Z,20.94
2019-04-01T09:01:11.253Z,20.30
2019-04-01T09:03:40.850Z,19.72
2019-04-01T09:06:10.561Z,19.99
2019-04-01T09:08:42.334Z,20.09
2019-04-01T09:11:13.702Z,20.13
2019-04-01T09:13:44.993Z,20.16
2019-04-01T09:16:14.709Z,19.38
2019-04-01T09:18:46.669Z,19.53
2019-04-01T09:21:19.547Z,19.63
2019-04-01T09:23:52.012Z,20.18
2019-04-01T09:26:20.154Z,20.64
2019-04-01T09:28:49.600Z,20.31
2019-04-01T09:31:20.770Z,20.86
2019-04-01T09:33:50.172Z,20.76
2019-04-01T09:36:19.877Z,21.28
2019-04-01T09:38:50.941Z,22.02
2019-04-01T09:41:20.783Z,23.25
2019-04-01T09:43:50.559Z,23.93
2019-04-01T09:46:20.160Z,24.80
2019-04-01T09:48:50.734Z,25.23
2019-04-01T09:51:20.544Z,25.90
2019-04-01T09:53:51.763Z,27.11
2019-04-01T09:56:21.364Z,27.29
2019-04-01T09:58:52.101Z,27.47
2019-04-01T10:01:21.605Z,28.79
2019-04-01T10:03:51.173Z,28.85
2019-04-01T10:06:23.736Z,28.83
2019-04-01T10:08:54.970Z,29.41
2019-04-01T10:11:25.676Z,28.90
2019-04-01T10:13:55.358Z,28.74
2019-04-01T10:16:28.690Z,29.18
2019-04-01T10:18:58.298Z,29.19
2019-04-01T10:21:29.602Z,29.30
2019-04-01T10:24:00.512Z,29.45
2019-04-01T10:26:29.916Z,29.77
2019-04-01T10:28:59.726Z,29.85
2019-04-01T10:31:30.666Z,29.92
2019-04-01T10:34:00.099Z,30.11
2019-04-01T10:36:29.732Z,29.77
2019-04-01T10:39:01.080Z,29.47
2019-04-01T10:41:31.603Z,29.50
2019-04-01T10:44:04.744Z,29.80
2019-04-01T10:46:32.667Z,29.92
2019-04-01T10:49:03.279Z,30.66
2019-04-01T10:51:33.052Z,30.89
2019-04-01T10:54:02.611Z,31.53
2019-04-01T10:56:35.671Z,31.85
2019-04-01T10:59:03.510Z,32.61
2019-04-01T11:01:32.952Z,33.05
2019-04-01T11:04:02.558Z,32.55
2019-04-01T11:06:32.200Z,32.42
2019-04-01T11:09:01.720Z,31.06
2019-04-01T11:11:31.105Z,30.60
2019-04-01T11:14:00.532Z,30.18
2019-04-01T11:16:31.795Z,31.12
2019-04-01T11:19:01.141Z,31.16
2019-04-01T11:21:33.780Z,30.68
2019-04-01T11:24:03.370Z,31.52
2019-04-01T11:26:36.453Z,32.47
2019-04-01T11:29:07.717Z,32.95
2019-04-01T11:31:37.325Z,33.08
2019-04-01T11:34:08.075Z,33.28
2019-04-01T11:36:39.292Z,32.99
2019-04-01T11:39:12.694Z,31.23
2019-04-01T11:41:43.847Z,31.70
2019-04-01T11:44:15.086Z,32.68
2019-04-01T11:46:44.575Z,33.29
2019-04-01T11:49:14.122Z,34.02
2019-04-01T11:51:43.987Z,33.91
2019-04-01T11:54:14.656Z,33.61
2019-04-01T11:56:44.190Z,32.46
2019-04-01T11:59:15.431Z,32.75
2019-04-01T12:01:47.320Z,32.40
2019-04-01T12:04:18.059Z,31.86
2019-04-01T12:06:47.920Z,32.03
2019-04-01T12:09:17.454Z,32.13
2019-04-01T12:11:49.809Z,32.11
2019-04-01T12:14:20.739Z,31.83
2019-04-01T12:16:50.155Z,30.75
2019-04-01T12:19:19.692Z,31.24
2019-04-01T12:21:49.571Z,31.13
2019-04-01T12:24:21.551Z,31.06
2019-04-01T12:26:52.433Z,31.07
2019-04-01T12:29:22.202Z,31.37
2019-04-01T12:31:54.951Z,31.39
2019-04-01T12:34:26.037Z,31.65
2019-04-01T12:36:57.333Z,30.13
2019-04-01T12:39:29.319Z,29.94
2019-04-01T12:42:00.541Z,29.56
2019-04-01T12:44:30.235Z,29.99
2019-04-01T12:47:01.000Z,29.58
2019-04-01T12:49:30.414Z,29.51
2019-04-01T12:52:01.877Z,29.58
2019-04-01T12:54:32.978Z,29.09
2019-04-01T12:57:05.747Z,28.85
2019-04-01T12:59:35.379Z,29.14
2019-04-01T13:02:08.966Z,29.14
2019-04-01T13:04:41.384Z,29.05
2019-04-01T13:07:14.581Z,29.06
2019-04-01T13:09:46.030Z,29.10
2019-04-01T13:12:17.787Z,28.00
2019-04-01T13:14:50.365Z,28.32
2019-04-01T13:17:20.945Z,28.49
2019-04-01T13:19:50.666Z,28.71
2019-04-01T13:22:22.184Z,28.07
2019-04-01T13:24:53.120Z,28.44
2019-04-01T13:27:22.616Z,28.57
2019-04-01T13:29:53.659Z,28.72
2019-04-01T13:32:24.085Z,27.84
2019-04-01T13:34:55.559Z,28.18
2019-04-01T13:37:33.898Z,26.87
2019-04-01T13:40:03.544Z,27.77
2019-04-01T13:42:33.109Z,28.57
2019-04-01T13:45:02.860Z,28.73
2019-04-01T13:47:34.152Z,28.82
2019-04-01T13:50:04.889Z,27.87
2019-04-01T13:52:34.607Z,27.71
2019-04-01T13:55:09.913Z,27.81
2019-04-01T13:57:39.675Z,28.42
2019-04-01T14:00:10.092Z,28.39
2019-04-01T14:02:39.890Z,27.97
2019-04-01T14:05:09.636Z,27.84
2019-04-01T14:07:40.247Z,27.99
2019-04-01T14:10:10.271Z,27.37
2019-04-01T14:12:41.797Z,27.07
2019-04-01T14:15:11.736Z,27.00
2019-04-01T14:17:41.338Z,27.15
2019-04-01T14:20:11.367Z,26.56
2019-04-01T14:22:44.334Z,26.47
2019-04-01T14:25:15.321Z,26.84
2019-04-01T14:27:44.909Z,27.24
2019-04-01T14:30:15.668Z,27.36
2019-04-01T14:32:45.254Z,27.15
2019-04-01T14:35:14.799Z,26.73
2019-04-01T14:37:44.795Z,26.78
2019-04-01T14:40:14.696Z,27.24
2019-04-01T14:42:46.417Z,27.54
2019-04-01T14:45:16.371Z,28.02
2019-04-01T14:47:57.114Z,28.33
2019-04-01T14:50:17.106Z,28.04
2019-04-01T14:52:46.856Z,27.58
2019-04-01T14:55:18.048Z,27.37
2019-04-01T14:57:47.458Z,27.22
2019-04-01T15:00:17.420Z,27.47
2019-04-01T15:02:46.809Z,27.89
2019-04-01T15:05:17.288Z,27.60
2019-04-01T15:07:47.137Z,27.22
2019-04-01T15:10:17.418Z,27.54
2019-04-01T15:12:46.878Z,28.12
2019-04-01T15:15:16.829Z,28.33
2019-04-01T15:17:47.275Z,28.50
2019-04-01T15:20:17.319Z,28.01
2019-04-01T15:22:46.879Z,27.99
2019-04-01T15:25:16.376Z,27.89
2019-04-01T15:27:48.285Z,27.76
2019-04-01T15:30:18.424Z,27.50
2019-04-01T15:32:47.897Z,27.73
2019-04-01T15:35:17.518Z,27.30
2019-04-01T15:37:47.102Z,27.46
2019-04-01T15:40:18.251Z,28.63
2019-04-01T15:42:50.064Z,26.51
2019-04-01T15:45:21.497Z,25.44
2019-04-01T15:47:51.087Z,25.16
2019-04-01T15:50:28.144Z,28.16
2019-04-01T15:52:54.254Z,26.29
2019-04-01T15:55:25.066Z,26.69
2019-04-01T15:57:54.485Z,26.79
2019-04-01T16:00:24.654Z,26.85
2019-04-01T16:02:54.168Z,26.35
2019-04-01T16:05:23.820Z,26.12
2019-04-01T16:07:53.437Z,26.70
2019-04-01T16:10:22.925Z,26.95
2019-04-01T16:12:53.487Z,27.84
2019-04-01T16:15:23.164Z,26.82
2019-04-01T16:17:54.398Z,26.84
2019-04-01T16:20:23.910Z,26.97
2019-04-01T16:22:54.676Z,27.11
2019-04-01T16:25:25.140Z,27.68
2019-04-01T16:27:54.704Z,26.53
2019-04-01T16:30:24.316Z,26.73
2019-04-01T16:32:53.857Z,26.77
2019-04-01T16:35:24.958Z,26.73
2019-04-01T16:37:54.570Z,27.03
2019-04-01T16:40:26.807Z,26.67
2019-04-01T16:42:56.254Z,27.42
2019-04-01T16:45:32.523Z,26.63
2019-04-01T16:48:03.016Z,26.49
2019-04-01T16:50:32.430Z,26.33
2019-04-01T16:53:02.112Z,27.44
2019-04-01T16:55:31.510Z,27.14
2019-04-01T16:58:01.043Z,28.10
2019-04-01T17:00:30.458Z,28.23
2019-04-01T17:03:00.856Z,27.40
2019-04-01T17:05:33.960Z,27.33
2019-04-01T17:08:04.001Z,28.01
2019-04-01T17:10:33.598Z,27.05
2019-04-01T17:13:04.150Z,27.35
2019-04-01T17:15:35.212Z,26.70
2019-04-01T17:18:04.623Z,27.13
2019-04-01T17:20:34.291Z,26.90
2019-04-01T17:23:05.344Z,26.67
2019-04-01T17:25:35.872Z,26.66
2019-04-01T17:28:06.746Z,26.77
2019-04-01T17:30:36.335Z,27.30
2019-04-01T17:33:08.452Z,27.72
2019-04-01T17:35:38.209Z,27.96
2019-04-01T17:38:08.138Z,28.05
2019-04-01T17:40:38.579Z,27.72
2019-04-01T17:43:09.708Z,27.80
2019-04-01T17:45:41.074Z,27.94
2019-04-01T17:48:11.244Z,27.81
2019-04-01T17:50:40.973Z,27.82
2019-04-01T17:53:13.542Z,27.38
2019-04-01T17:55:45.634Z,27.38
2019-04-01T17:58:18.941Z,27.92
2019-04-01T18:00:54.624Z,27.62
2019-04-01T18:03:25.471Z,27.79
2019-04-01T18:05:56.615Z,28.04
2019-04-01T18:08:26.144Z,28.18
2019-04-01T18:10:57.192Z,28.22
2019-04-01T18:13:29.184Z,28.27
2019-04-01T18:15:58.742Z,28.58
2019-04-01T18:18:28.476Z,28.99
2019-04-01T18:20:59.348Z,28.77
2019-04-01T18:23:30.041Z,29.13
2019-04-01T18:25:59.475Z,29.23
2019-04-01T18:28:31.762Z,29.41
2019-04-01T18:31:03.982Z,29.54
2019-04-01T18:33:33.548Z,29.89
2019-04-01T18:36:03.366Z,30.06
2019-04-01T18:38:32.873Z,30.07
2019-04-01T18:41:02.293Z,30.35
2019-04-01T18:43:32.295Z,30.71
2019-04-01T18:46:01.779Z,30.79
2019-04-01T18:48:32.259Z,30.87
2019-04-01T18:51:04.701Z,30.89
2019-04-01T18:53:36.359Z,31.15
2019-04-01T18:56:06.183Z,31.29
2019-04-01T18:58:36.829Z,31.76
2019-04-01T19:01:07.964Z,31.82
2019-04-01T19:03:39.490Z,31.95
2019-04-01T19:06:12.101Z,31.99
2019-04-01T19:08:42.923Z,32.06
2019-04-01T19:11:15.433Z,32.46
2019-04-01T19:13:45.926Z,32.41
2019-04-01T19:16:17.325Z,32.40
2019-04-01T19:18:48.857Z,32.66
2019-04-01T19:21:19.524Z,32.69
2019-04-01T19:23:49.153Z,32.82
2019-04-01T19:26:20.655Z,32.97
2019-04-01T19:28:53.243Z,33.03
2019-04-01T19:31:23.768Z,33.14
2019-04-01T19:33:53.281Z,33.28
2019-04-01T19:36:22.969Z,33.43
2019-04-01T19:38:54.351Z,33.51
2019-04-01T19:41:24.005Z,33.74
2019-04-01T19:43:53.783Z,33.95
2019-04-01T19:46:23.261Z,33.89
2019-04-01T19:48:52.795Z,34.04
2019-04-01T19:51:23.625Z,34.18
2019-04-01T19:53:53.574Z,34.26
2019-04-01T19:56:23.029Z,34.43
2019-04-01T19:58:55.070Z,34.45
2019-04-01T20:01:24.935Z,34.70
2019-04-01T20:03:55.979Z,34.70
2019-04-01T20:06:28.522Z,34.94
2019-04-01T20:08:58.069Z,34.80
2019-04-01T20:11:27.450Z,35.07
2019-04-01T20:13:57.142Z,35.12
2019-04-01T20:16:28.170Z,35.27
2019-04-01T20:19:00.181Z,35.21
2019-04-01T20:21:30.110Z,35.51
2019-04-01T20:23:59.624Z,35.57
2019-04-01T20:26:29.374Z,35.51
2019-04-01T20:29:01.776Z,35.68
2019-04-01T20:31:33.182Z,35.68
2019-04-01T20:34:04.315Z,35.82
2019-04-01T20:36:35.256Z,35.96
2019-04-01T20:39:07.219Z,35.95
2019-04-01T20:41:38.455Z,36.20
2019-04-01T20:44:09.160Z,36.15
2019-04-01T20:46:39.261Z,36.36
2019-04-01T20:49:08.961Z,36.46
2019-04-01T20:51:38.849Z,36.58
2019-04-01T20:54:08.476Z,36.63
2019-04-01T20:56:38.059Z,36.72
2019-04-01T20:59:07.907Z,36.86
2019-04-01T21:01:43.236Z,37.16
2019-04-01T21:04:12.769Z,37.21
2019-04-01T21:06:42.550Z,37.48
2019-04-01T21:09:11.974Z,37.54
2019-04-01T21:11:42.914Z,37.59
2019-04-01T21:14:12.563Z,37.71
2019-04-01T21:16:41.967Z,37.84
2019-04-01T21:19:14.288Z,38.11
2019-04-01T21:21:44.012Z,38.32
2019-04-01T21:24:16.735Z,38.42
2019-04-01T21:26:46.222Z,38.45
2019-04-01T21:29:16.831Z,38.56
2019-04-01T21:31:48.522Z,38.56
2019-04-01T21:34:18.053Z,38.56
2019-04-01T21:36:49.035Z,38.58
2019-04-01T21:39:18.564Z,38.77
2019-04-01T21:41:49.662Z,38.65
2019-04-01T21:44:19.317Z,38.77
2019-04-01T21:46:48.825Z,38.66
2019-04-01T21:49:19.340Z,39.14
2019-04-01T21:51:49.005Z,38.91
2019-04-01T21:54:20.355Z,38.82
2019-04-01T21:56:52.147Z,38.69
2019-04-01T21:59:25.049Z,38.94
2019-04-01T22:01:54.448Z,38.99
2019-04-01T22:04:24.292Z,39.12
2019-04-01T22:06:55.610Z,39.18
2019-04-01T22:09:24.984Z,39.12
2019-04-01T22:11:54.355Z,39.11
2019-04-01T22:14:27.008Z,39.29
2019-04-01T22:16:56.377Z,39.39
2019-04-01T22:19:26.861Z,39.45
2019-04-01T22:21:56.343Z,39.54
2019-04-01T22:24:26.846Z,39.57
2019-04-01T22:26:58.003Z,39.74
2019-04-01T22:29:27.491Z,39.61
2019-04-01T22:31:56.856Z,39.66
2019-04-01T22:34:27.280Z,39.82
2019-04-01T22:36:58.445Z,39.86
2019-04-01T22:39:27.809Z,39.92
2019-04-01T22:41:58.286Z,40.00
2019-04-01T22:44:28.128Z,40.10
2019-04-01T22:46:59.304Z,39.98
2019-04-01T22:49:30.501Z,39.99
2019-04-01T22:52:00.398Z,40.02
2019-04-01T22:54:30.229Z,39.95
2019-04-01T22:57:00.431Z,40.12
2019-04-01T22:59:29.858Z,40.18
2019-04-01T23:02:01.205Z,40.25
2019-04-01T23:04:31.824Z,40.20
2019-04-01T23:07:01.798Z,40.24
2019-04-01T23:09:31.162Z,40.45
2019-04-01T23:12:00.536Z,40.39
2019-04-01T23:14:31.636Z,40.54
2019-04-01T23:17:01.015Z,40.34
2019-04-01T23:19:30.391Z,40.43
2019-04-01T23:22:00.284Z,40.48
2019-04-01T23:24:30.044Z,40.56
2019-04-01T23:26:59.444Z,40.62
2019-04-01T23:29:30.734Z,40.62
2019-04-01T23:32:00.099Z,40.61
2019-04-01T23:34:30.948Z,40.60
2019-04-01T23:37:03.460Z,40.75
2019-04-01T23:39:33.288Z,40.59
2019-04-01T23:42:03.629Z,40.94
2019-04-01T23:44:34.471Z,40.75
2019-04-01T23:47:05.051Z,40.91
2019-04-01T23:49:34.445Z,40.81
2019-04-01T23:52:05.326Z,40.91
2019-04-01T23:54:36.131Z,40.75
2019-04-01T23:57:05.615Z,40.79
2019-04-01T23:59:35.258Z,40.94
